createdAt,value
2023-02-02T00:01:21.178Z,7.65
2023-02-02T00:03:50.715Z,7.63
2023-02-02T00:06:20.305Z,7.64
2023-02-02T00:08:48.458Z,7.64
2023-02-02T00:11:16.826Z,7.63
2023-02-02T00:13:44.750Z,7.63
2023-02-02T00:16:34.628Z,7.58
2023-02-02T00:19:03.708Z,7.62
2023-02-02T00:21:33.099Z,7.63
2023-02-02T00:24:01.570Z,7.63
2023-02-02T00:26:29.634Z,7.58
2023-02-02T00:28:57.638Z,7.58
2023-02-02T00:31:25.509Z,7.60
2023-02-02T00:33:53.235Z,7.63
2023-02-02T00:36:21.901Z,7.62
2023-02-02T00:38:52.790Z,7.61
2023-02-02T00:41:20.891Z,7.60
2023-02-02T00:44:09.275Z,7.56
2023-02-02T00:46:39.312Z,7.55
2023-02-02T00:49:07.128Z,7.51
2023-02-02T00:51:34.926Z,7.50
2023-02-02T00:54:04.225Z,7.49
2023-02-02T00:56:32.132Z,7.45
2023-02-02T00:58:59.918Z,7.43
2023-02-02T01:01:27.820Z,7.43
2023-02-02T01:03:55.503Z,7.42
2023-02-02T01:06:23.311Z,7.40
2023-02-02T01:08:51.104Z,7.37
2023-02-02T01:11:20.475Z,7.41
2023-02-02T01:13:48.182Z,7.40
2023-02-02T01:16:16.085Z,7.40
2023-02-02T01:18:43.832Z,7.40
2023-02-02T01:21:13.066Z,7.41
2023-02-02T01:23:41.636Z,7.48
2023-02-02T01:26:10.631Z,7.50
2023-02-02T01:28:40.191Z,7.52
2023-02-02T01:31:09.729Z,7.56
2023-02-02T01:33:37.491Z,7.60
2023-02-02T01:36:08.036Z,7.62
2023-02-02T01:38:35.967Z,7.65
2023-02-02T01:41:05.131Z,7.68
2023-02-02T01:43:53.340Z,7.69
2023-02-02T01:46:22.120Z,7.71
2023-02-02T01:48:52.276Z,7.73
2023-02-02T01:51:22.733Z,7.76
2023-02-02T01:53:52.524Z,7.78
2023-02-02T01:56:26.170Z,7.77
2023-02-02T01:58:55.365Z,7.81
2023-02-02T02:01:23.089Z,7.81
2023-02-02T02:03:50.919Z,7.83
2023-02-02T02:06:20.236Z,7.86
2023-02-02T02:08:52.446Z,7.87
2023-02-02T02:11:20.429Z,7.88
2023-02-02T02:14:05.951Z,7.89
2023-02-02T02:16:44.163Z,7.92
2023-02-02T02:19:22.372Z,7.92
2023-02-02T02:22:14.995Z,7.89
2023-02-02T02:25:32.915Z,7.94
2023-02-02T02:28:21.865Z,7.93
2023-02-02T02:31:09.437Z,7.95
2023-02-02T02:33:42.342Z,7.94
2023-02-02T02:36:18.262Z,7.95
2023-02-02T02:38:51.754Z,7.97
2023-02-02T02:41:22.619Z,7.95
2023-02-02T02:43:54.046Z,7.97
2023-02-02T02:46:22.025Z,7.97
2023-02-02T02:48:51.308Z,8.00
2023-02-02T02:51:45.469Z,8.03
2023-02-02T02:54:14.081Z,8.04
2023-02-02T02:56:50.233Z,8.03
2023-02-02T02:59:23.670Z,8.04
2023-02-02T03:01:55.871Z,8.00
2023-02-02T03:04:29.892Z,8.06
2023-02-02T03:07:01.516Z,8.07
2023-02-02T03:09:34.834Z,8.04
2023-02-02T03:12:02.679Z,8.09
2023-02-02T03:14:30.395Z,8.10
2023-02-02T03:16:58.141Z,8.09
2023-02-02T03:19:27.456Z,8.09
2023-02-02T03:21:55.189Z,8.08
2023-02-02T03:24:22.962Z,8.07
2023-02-02T03:26:50.917Z,8.10
2023-02-02T03:29:19.052Z,8.06
2023-02-02T03:31:47.722Z,8.11
2023-02-02T03:34:15.393Z,8.10
2023-02-02T03:36:44.523Z,8.11
2023-02-02T03:39:12.279Z,8.13
2023-02-02T03:41:39.967Z,8.09
2023-02-02T03:44:07.793Z,8.11
2023-02-02T03:46:35.583Z,8.08
2023-02-02T03:49:03.402Z,8.08
2023-02-02T03:51:31.077Z,8.05
2023-02-02T03:54:00.199Z,8.04
2023-02-02T03:56:27.969Z,8.06
2023-02-02T03:58:55.722Z,8.01
2023-02-02T04:01:29.400Z,8.07
2023-02-02T04:03:57.591Z,8.04
2023-02-02T04:06:25.759Z,8.02
2023-02-02T04:08:53.895Z,8.01
2023-02-02T04:11:23.025Z,7.99
2023-02-02T04:13:50.735Z,7.98
2023-02-02T04:16:18.466Z,7.99
2023-02-02T04:18:46.163Z,7.96
2023-02-02T04:21:13.884Z,7.98
2023-02-02T04:23:41.618Z,7.99
2023-02-02T04:26:11.506Z,7.98
2023-02-02T04:28:40.584Z,7.97
2023-02-02T04:31:08.405Z,7.91
2023-02-02T04:33:36.563Z,7.89
2023-02-02T04:36:04.997Z,7.89
2023-02-02T04:38:32.920Z,7.90
2023-02-02T04:41:00.619Z,7.92
2023-02-02T04:43:28.475Z,7.92
2023-02-02T04:45:58.253Z,7.91
2023-02-02T04:48:25.977Z,7.91
2023-02-02T04:50:59.756Z,7.92
2023-02-02T04:53:27.419Z,7.93
2023-02-02T04:55:55.051Z,7.97
2023-02-02T04:58:23.023Z,7.98
2023-02-02T05:00:50.736Z,7.98
2023-02-02T05:03:19.869Z,7.95
2023-02-02T05:05:48.598Z,7.95
2023-02-02T05:08:16.255Z,7.96
2023-02-02T05:10:44.036Z,7.94
2023-02-02T05:13:11.779Z,7.93
2023-02-02T05:15:39.508Z,7.93
2023-02-02T05:18:07.237Z,7.90
2023-02-02T05:20:36.403Z,7.91
2023-02-02T05:23:04.124Z,7.92
2023-02-02T05:25:31.804Z,7.92
2023-02-02T05:27:59.860Z,7.90
2023-02-02T05:30:27.531Z,7.95
2023-02-02T05:32:55.173Z,7.97
2023-02-02T05:35:23.222Z,7.98
2023-02-02T05:37:52.706Z,8.01
2023-02-02T05:40:20.396Z,8.01
2023-02-02T05:42:49.579Z,8.01
2023-02-02T05:45:17.404Z,8.02
2023-02-02T05:47:45.101Z,8.01
2023-02-02T05:50:12.836Z,8.04
2023-02-02T05:52:41.695Z,8.07
2023-02-02T05:55:11.409Z,8.08
2023-02-02T05:57:39.178Z,8.08
2023-02-02T06:00:08.422Z,8.09
2023-02-02T06:02:36.103Z,8.10
2023-02-02T06:05:03.807Z,8.13
2023-02-02T06:07:31.544Z,8.16
2023-02-02T06:09:59.399Z,8.17
2023-02-02T06:12:28.526Z,8.18
2023-02-02T06:14:56.206Z,8.18
2023-02-02T06:17:23.902Z,8.19
2023-02-02T06:19:51.647Z,8.18
2023-02-02T06:22:19.368Z,8.17
2023-02-02T06:24:47.005Z,8.19
2023-02-02T06:27:14.771Z,8.22
2023-02-02T06:29:43.872Z,8.19
2023-02-02T06:32:11.741Z,8.19
2023-02-02T06:34:39.500Z,8.18
2023-02-02T06:37:07.740Z,8.20
2023-02-02T06:39:35.470Z,8.22
2023-02-02T06:42:19.276Z,8.26
2023-02-02T06:44:50.111Z,8.26
2023-02-02T06:47:18.136Z,8.27
2023-02-02T06:49:45.882Z,8.27
2023-02-02T06:52:13.559Z,8.27
2023-02-02T06:54:41.255Z,8.27
2023-02-02T06:57:09.321Z,8.25
2023-02-02T06:59:37.073Z,8.29
2023-02-02T07:02:06.179Z,8.24
2023-02-02T07:04:33.919Z,8.29
2023-02-02T07:07:01.649Z,8.31
2023-02-02T07:09:29.411Z,8.29
2023-02-02T07:11:59.016Z,8.32
2023-02-02T07:14:27.154Z,8.33
2023-02-02T07:16:54.964Z,8.33
2023-02-02T07:19:24.169Z,8.34
2023-02-02T07:21:51.832Z,8.35
2023-02-02T07:24:19.560Z,8.36
2023-02-02T07:26:47.229Z,8.38
2023-02-02T07:29:15.292Z,8.38
2023-02-02T07:31:43.276Z,8.37
2023-02-02T07:34:10.994Z,8.37
2023-02-02T07:36:40.032Z,8.39
2023-02-02T07:39:07.961Z,8.38
2023-02-02T07:41:37.057Z,8.38
2023-02-02T07:44:05.855Z,8.37
2023-02-02T07:46:33.752Z,8.40
2023-02-02T07:49:01.644Z,8.42
2023-02-02T07:51:29.333Z,8.43
2023-02-02T07:53:59.549Z,8.42
2023-02-02T07:56:28.785Z,8.42
2023-02-02T07:58:57.480Z,8.38
2023-02-02T08:01:26.359Z,8.43
2023-02-02T08:03:55.435Z,8.43
2023-02-02T08:06:25.983Z,8.45
2023-02-02T08:08:53.624Z,8.45
2023-02-02T08:11:23.891Z,8.44
2023-02-02T08:13:52.830Z,8.46
2023-02-02T08:16:21.269Z,8.47
2023-02-02T08:18:49.197Z,8.44
2023-02-02T08:21:17.558Z,8.47
